createdAt,value
2019-06-20T00:01:12.854Z,5.30
2019-06-20T00:06:13.950Z,5.07
2019-06-20T00:11:15.040Z,5.23
2019-06-20T00:16:16.155Z,5.73
2019-06-20T00:21:17.251Z,7.13
2019-06-20T00:26:18.345Z,6.27
2019-06-20T00:31:19.540Z,7.37
2019-06-20T00:36:20.638Z,5.37
2019-06-20T00:41:21.735Z,8.40
2019-06-20T00:46:22.827Z,5.80
2019-06-20T00:51:23.939Z,5.87
2019-06-20T00:56:25.040Z,5.57
2019-06-20T01:01:26.148Z,5.13
2019-06-20T01:06:27.321Z,5.37
2019-06-20T01:11:28.428Z,5.17
2019-06-20T01:16:29.782Z,6.67
2019-06-20T01:21:30.934Z,6.93
2019-06-20T01:26:32.039Z,6.57
2019-06-20T01:31:34.624Z,4.67
2019-06-20T01:36:35.717Z,6.73
2019-06-20T01:41:36.912Z,6.33
2019-06-20T01:46:38.004Z,7.60
2019-06-20T01:51:39.100Z,5.30
2019-06-20T01:56:40.179Z,7.90
2019-06-20T02:01:41.471Z,5.87
2019-06-20T02:06:42.771Z,7.40
2019-06-20T02:11:43.879Z,10.27
2019-06-20T02:16:44.992Z,8.73
2019-06-20T02:21:46.112Z,6.30
2019-06-20T02:26:47.284Z,6.43
2019-06-20T02:31:48.378Z,6.40
2019-06-20T02:36:49.471Z,8.73
2019-06-20T02:41:50.573Z,8.23
2019-06-20T02:46:51.781Z,8.43
2019-06-20T02:51:53.071Z,6.90
2019-06-20T02:56:54.353Z,6.90
2019-06-20T03:01:55.435Z,10.03
2019-06-20T03:06:56.531Z,7.40
2019-06-20T03:11:57.626Z,8.93
2019-06-20T03:16:58.867Z,6.43
2019-06-20T03:21:59.962Z,7.63
2019-06-20T03:27:01.047Z,10.97
2019-06-20T03:32:02.238Z,10.87
2019-06-20T03:37:03.327Z,7.20
2019-06-20T03:42:04.417Z,9.17
2019-06-20T03:47:05.535Z,8.37
2019-06-20T03:52:06.628Z,10.73
2019-06-20T03:57:07.720Z,11.03
2019-06-20T04:02:08.811Z,7.40
2019-06-20T04:07:09.910Z,6.40
2019-06-20T04:12:11.030Z,5.77
2019-06-20T04:17:12.255Z,6.57
2019-06-20T04:22:13.352Z,6.47
2019-06-20T04:27:14.447Z,8.47
2019-06-20T04:32:15.540Z,6.43
2019-06-20T04:37:16.634Z,6.40
2019-06-20T04:42:18.819Z,8.30
2019-06-20T04:47:20.117Z,6.70
2019-06-20T04:52:21.201Z,5.57
2019-06-20T04:57:22.297Z,7.40
2019-06-20T05:02:25.287Z,7.73
2019-06-20T05:07:26.382Z,16.43
2019-06-20T05:12:27.472Z,10.13
2019-06-20T05:17:28.580Z,7.27
2019-06-20T05:22:29.668Z,5.57
2019-06-20T05:27:30.764Z,5.40
2019-06-20T05:32:31.853Z,4.00
2019-06-20T05:37:32.939Z,5.53
2019-06-20T05:42:34.138Z,5.07
2019-06-20T05:47:35.229Z,6.47
2019-06-20T05:52:36.435Z,6.80
2019-06-20T05:57:38.328Z,9.50
2019-06-20T06:02:40.198Z,5.53
2019-06-20T06:07:41.509Z,7.30
2019-06-20T06:12:42.602Z,5.60
2019-06-20T06:17:43.840Z,4.53
2019-06-20T06:22:45.035Z,5.03
2019-06-20T06:27:46.245Z,4.23
2019-06-20T06:32:47.335Z,4.20
2019-06-20T06:37:48.433Z,5.43
2019-06-20T06:42:49.524Z,6.17
2019-06-20T06:47:50.623Z,5.93
2019-06-20T06:52:51.911Z,3.13
2019-06-20T06:57:53.030Z,3.07
2019-06-20T07:02:54.225Z,5.30
2019-06-20T07:07:55.346Z,2.67
2019-06-20T07:12:56.619Z,2.40
2019-06-20T07:17:57.762Z,2.67
2019-06-20T07:22:58.964Z,3.00
2019-06-20T07:28:00.167Z,1.43
2019-06-20T07:33:01.440Z,2.00
2019-06-20T07:38:02.759Z,2.77
2019-06-20T07:43:03.844Z,2.13
2019-06-20T07:48:05.055Z,1.40
2019-06-20T07:53:06.149Z,2.10
2019-06-20T07:58:08.431Z,2.80
2019-06-20T08:03:09.642Z,1.53
2019-06-20T08:08:10.820Z,1.13
2019-06-20T08:13:11.925Z,0.80
2019-06-20T08:18:13.119Z,1.37
2019-06-20T08:23:14.253Z,1.37
2019-06-20T08:28:15.374Z,1.13
2019-06-20T08:33:17.856Z,1.20
2019-06-20T08:38:18.953Z,1.60
2019-06-20T08:43:20.047Z,4.17
2019-06-20T08:48:21.148Z,2.67
2019-06-20T08:53:22.255Z,1.17
2019-06-20T08:58:23.432Z,1.33
2019-06-20T09:03:24.529Z,2.07
2019-06-20T09:08:25.642Z,1.43
2019-06-20T09:13:26.740Z,2.00
2019-06-20T09:18:27.830Z,1.30
2019-06-20T09:23:28.943Z,1.20
2019-06-20T09:28:30.056Z,1.43
2019-06-20T09:33:31.152Z,2.00
2019-06-20T09:38:32.244Z,1.52
2019-06-20T09:43:34.049Z,1.60
2019-06-20T09:48:35.145Z,1.27
2019-06-20T09:53:36.241Z,1.33
2019-06-20T09:58:37.346Z,1.57
2019-06-20T10:03:38.450Z,1.10
2019-06-20T10:08:39.561Z,1.10
2019-06-20T10:13:40.700Z,2.25
2019-06-20T10:18:41.899Z,1.60
2019-06-20T10:23:43.114Z,1.27
2019-06-20T10:28:44.608Z,2.30
2019-06-20T10:33:47.017Z,1.33
2019-06-20T10:38:50.451Z,2.37
2019-06-20T10:43:52.705Z,1.33
2019-06-20T10:48:55.299Z,1.37
2019-06-20T10:53:57.123Z,1.40
2019-06-20T10:58:58.472Z,1.30
2019-06-20T11:04:00.489Z,1.37
2019-06-20T11:09:02.098Z,1.30
2019-06-20T11:14:04.108Z,1.87
2019-06-20T11:19:05.300Z,1.77
2019-06-20T11:24:06.527Z,2.87
2019-06-20T11:29:07.631Z,2.17
2019-06-20T11:34:08.716Z,1.87
2019-06-20T11:39:09.823Z,2.43
2019-06-20T11:44:10.930Z,2.00
2019-06-20T11:49:12.044Z,2.60
2019-06-20T11:54:13.131Z,1.57
2019-06-20T11:59:14.327Z,3.60
2019-06-20T12:04:15.435Z,2.23
2019-06-20T12:09:16.625Z,2.00
2019-06-20T12:14:17.741Z,1.50
2019-06-20T12:19:18.880Z,4.03
2019-06-20T12:24:20.111Z,1.40
2019-06-20T12:29:21.342Z,2.50
2019-06-20T12:34:22.466Z,1.90
2019-06-20T12:39:23.747Z,1.50
2019-06-20T12:44:24.869Z,1.57
2019-06-20T12:49:26.068Z,2.80
2019-06-20T12:54:30.070Z,1.50
2019-06-20T12:59:30.257Z,1.60
2019-06-20T13:04:31.351Z,1.53
2019-06-20T13:09:32.447Z,1.30
2019-06-20T13:14:33.850Z,1.47
2019-06-20T13:19:34.993Z,1.60
2019-06-20T13:24:36.250Z,2.83
2019-06-20T13:29:39.015Z,2.23
2019-06-20T13:34:41.628Z,1.10
2019-06-20T13:39:43.433Z,1.33
2019-06-20T13:44:44.548Z,2.17
2019-06-20T13:49:45.893Z,1.37
2019-06-20T13:54:47.959Z,1.20
2019-06-20T13:59:52.642Z,0.97
2019-06-20T14:04:52.252Z,2.43
2019-06-20T14:09:53.449Z,1.03
2019-06-20T14:14:54.657Z,3.40
2019-06-20T14:19:56.543Z,0.87
2019-06-20T14:24:57.960Z,1.40
2019-06-20T14:29:59.184Z,1.57
2019-06-20T14:35:00.429Z,3.43
2019-06-20T14:40:04.091Z,2.30
2019-06-20T14:45:05.785Z,1.50
2019-06-20T14:50:08.082Z,1.90
2019-06-20T14:55:09.483Z,2.43
2019-06-20T15:00:12.721Z,1.40
2019-06-20T15:05:15.532Z,1.63
2019-06-20T15:10:17.175Z,1.47
2019-06-20T15:15:18.360Z,0.95
2019-06-20T15:20:20.295Z,1.45
2019-06-20T15:25:21.410Z,1.05
2019-06-20T15:30:22.524Z,3.12
2019-06-20T15:35:23.642Z,2.02
2019-06-20T15:40:24.844Z,2.33
2019-06-20T15:45:25.971Z,1.80
2019-06-20T15:50:27.128Z,2.37
2019-06-20T15:55:28.340Z,1.70
2019-06-20T16:00:29.836Z,1.47
2019-06-20T16:05:30.958Z,2.00
2019-06-20T16:10:32.149Z,3.85
2019-06-20T16:15:33.261Z,1.20
2019-06-20T16:20:34.579Z,2.70
2019-06-20T16:25:35.731Z,1.17
2019-06-20T16:30:36.907Z,1.40
2019-06-20T16:35:38.012Z,3.03
2019-06-20T16:40:47.154Z,2.50
2019-06-20T16:45:48.348Z,1.40
2019-06-20T16:50:49.581Z,1.40
2019-06-20T16:55:50.685Z,1.22
2019-06-20T17:00:51.911Z,1.30
2019-06-20T17:05:53.152Z,1.22
2019-06-20T17:10:54.365Z,1.43
2019-06-20T17:15:55.471Z,3.83
2019-06-20T17:20:56.583Z,1.37
2019-06-20T17:26:00.700Z,1.63
2019-06-20T17:31:01.890Z,3.80
2019-06-20T17:36:17.334Z,1.40
2019-06-20T17:41:06.409Z,2.20
2019-06-20T17:46:07.614Z,3.03
2019-06-20T17:51:08.743Z,6.07
2019-06-20T17:56:09.849Z,6.17
2019-06-20T18:01:10.957Z,4.10
2019-06-20T18:06:12.426Z,6.83
2019-06-20T18:11:13.615Z,5.60
2019-06-20T18:16:24.685Z,3.90
2019-06-20T18:21:17.788Z,4.60
2019-06-20T18:26:18.971Z,3.03
2019-06-20T18:31:20.105Z,3.10
2019-06-20T18:36:21.215Z,3.17
2019-06-20T18:41:22.351Z,2.53
2019-06-20T18:46:23.717Z,2.03
2019-06-20T18:51:24.839Z,5.30
2019-06-20T18:56:26.028Z,3.80
2019-06-20T19:01:27.397Z,6.27
2019-06-20T19:06:36.056Z,2.13
2019-06-20T19:11:32.908Z,2.87
2019-06-20T19:16:34.159Z,2.90
2019-06-20T19:21:35.352Z,2.77
2019-06-20T19:26:36.498Z,3.23
2019-06-20T19:31:37.926Z,8.10
2019-06-20T19:36:39.162Z,2.30
2019-06-20T19:41:40.388Z,2.93
2019-06-20T19:46:41.703Z,5.63
2019-06-20T19:51:42.808Z,2.03
2019-06-20T19:56:43.959Z,6.63
2019-06-20T20:01:45.129Z,3.87
2019-06-20T20:06:46.228Z,6.90
2019-06-20T20:11:47.361Z,2.40
2019-06-20T20:16:48.576Z,3.27
2019-06-20T20:21:49.719Z,2.73
2019-06-20T20:26:50.831Z,3.90
2019-06-20T20:31:51.931Z,5.50
2019-06-20T20:36:53.036Z,2.50
2019-06-20T20:42:17.543Z,3.67
2019-06-20T20:47:17.143Z,4.17
2019-06-20T20:52:18.275Z,2.60
2019-06-20T20:57:19.399Z,3.33
2019-06-20T21:02:23.330Z,7.43
2019-06-20T21:07:24.422Z,5.40
2019-06-20T21:12:25.609Z,5.43
2019-06-20T21:17:26.939Z,5.50
2019-06-20T21:22:28.120Z,4.80
2019-06-20T21:27:29.328Z,5.73
2019-06-20T21:32:30.438Z,6.77
2019-06-20T21:37:31.537Z,5.20
2019-06-20T21:42:32.848Z,5.73
2019-06-20T21:47:33.997Z,6.87
2019-06-20T21:52:35.667Z,5.20
2019-06-20T21:57:36.789Z,4.10
2019-06-20T22:02:38.196Z,6.17
2019-06-20T22:07:39.300Z,3.80
2019-06-20T22:12:40.509Z,3.97
2019-06-20T22:17:41.766Z,4.47
2019-06-20T22:22:42.866Z,4.10
2019-06-20T22:27:43.972Z,7.03
2019-06-20T22:32:45.068Z,3.67
2019-06-20T22:37:46.171Z,2.00
2019-06-20T22:42:47.281Z,4.10
2019-06-20T22:47:48.402Z,2.83
2019-06-20T22:52:49.486Z,3.00
2019-06-20T22:57:50.602Z,3.23
2019-06-20T23:02:51.714Z,2.07
2019-06-20T23:07:52.909Z,2.13
2019-06-20T23:12:54.204Z,2.00
2019-06-20T23:17:55.358Z,3.50
2019-06-20T23:22:56.447Z,2.70
2019-06-20T23:27:57.556Z,4.03
2019-06-20T23:32:58.652Z,2.50
2019-06-20T23:37:59.744Z,6.17
2019-06-20T23:43:00.832Z,2.13
2019-06-20T23:48:02.055Z,3.40
2019-06-20T23:53:10.832Z,2.77
2019-06-20T23:58:11.930Z,6.93
